createdAt,value
2023-01-30T00:00:54.226Z,4.09
2023-01-30T00:03:23.703Z,4.16
2023-01-30T00:05:51.821Z,4.11
2023-01-30T00:08:19.825Z,4.33
2023-01-30T00:10:48.254Z,4.24
2023-01-30T00:13:16.627Z,4.25
2023-01-30T00:15:44.907Z,4.24
2023-01-30T00:18:12.519Z,4.23
2023-01-30T00:20:41.309Z,4.43
2023-01-30T00:23:08.836Z,4.27
2023-01-30T00:25:36.608Z,4.40
2023-01-30T00:28:04.318Z,4.33
2023-01-30T00:30:31.943Z,4.40
2023-01-30T00:33:00.290Z,4.42
2023-01-30T00:35:29.337Z,4.34
2023-01-30T00:37:59.329Z,4.33
2023-01-30T00:40:27.700Z,4.37
2023-01-30T00:43:13.357Z,4.45
2023-01-30T00:45:59.718Z,4.49
2023-01-30T00:48:27.417Z,4.49
2023-01-30T00:50:54.861Z,4.44
2023-01-30T00:53:23.786Z,4.49
2023-01-30T00:55:52.115Z,4.52
2023-01-30T00:58:19.881Z,4.54
2023-01-30T01:00:47.670Z,4.53
2023-01-30T01:03:15.528Z,4.46
2023-01-30T01:05:44.017Z,4.51
2023-01-30T01:08:11.892Z,4.46
2023-01-30T01:10:40.946Z,4.55
2023-01-30T01:13:10.699Z,4.56
2023-01-30T01:15:38.417Z,4.57
2023-01-30T01:18:07.816Z,4.62
2023-01-30T01:20:35.711Z,4.67
2023-01-30T01:23:03.499Z,4.67
2023-01-30T01:25:30.992Z,4.69
2023-01-30T01:27:59.923Z,4.74
2023-01-30T01:30:27.617Z,4.75
2023-01-30T01:32:55.536Z,4.70
2023-01-30T01:35:23.077Z,4.66
2023-01-30T01:37:54.352Z,4.71
2023-01-30T01:40:40.309Z,4.77
2023-01-30T01:43:17.090Z,4.87
2023-01-30T01:45:45.150Z,4.73
2023-01-30T01:48:16.875Z,4.77
2023-01-30T01:50:47.264Z,4.76
2023-01-30T01:53:17.192Z,4.75
2023-01-30T01:55:45.251Z,4.87
2023-01-30T01:58:18.435Z,4.79
2023-01-30T02:00:46.143Z,4.86
2023-01-30T02:03:16.439Z,4.90
2023-01-30T02:05:48.020Z,4.90
2023-01-30T02:08:18.717Z,4.96
2023-01-30T02:10:51.770Z,4.99
2023-01-30T02:13:21.333Z,5.14
2023-01-30T02:15:48.932Z,5.17
2023-01-30T02:18:16.901Z,5.16
2023-01-30T02:20:58.568Z,5.24
2023-01-30T02:23:55.353Z,5.29
2023-01-30T02:26:54.761Z,5.33
2023-01-30T02:29:40.459Z,5.49
2023-01-30T02:32:15.387Z,5.42
2023-01-30T02:34:51.376Z,5.45
2023-01-30T02:37:29.181Z,5.50
2023-01-30T02:40:11.487Z,5.51
2023-01-30T02:42:46.380Z,5.56
2023-01-30T02:45:18.774Z,5.56
2023-01-30T02:47:50.905Z,5.58
2023-01-30T02:50:22.303Z,5.64
2023-01-30T02:52:50.063Z,5.64
2023-01-30T02:55:21.760Z,5.74
2023-01-30T02:57:49.345Z,5.77
2023-01-30T03:00:20.933Z,5.78
2023-01-30T03:03:07.238Z,5.89
2023-01-30T03:05:46.367Z,5.92
2023-01-30T03:08:21.618Z,5.84
2023-01-30T03:10:54.143Z,5.79
2023-01-30T03:13:28.572Z,5.86
2023-01-30T03:16:01.329Z,5.82
2023-01-30T03:18:30.745Z,5.84
2023-01-30T03:20:58.239Z,5.86
2023-01-30T03:23:25.985Z,5.82
2023-01-30T03:25:53.474Z,5.89
2023-01-30T03:28:22.015Z,5.82
2023-01-30T03:30:49.766Z,5.79
2023-01-30T03:33:17.518Z,5.71
2023-01-30T03:35:46.680Z,5.71
2023-01-30T03:38:14.609Z,5.71
2023-01-30T03:40:42.338Z,5.71
2023-01-30T03:43:09.902Z,5.76
2023-01-30T03:45:37.815Z,5.77
2023-01-30T03:48:05.662Z,5.82
2023-01-30T03:50:33.439Z,5.86
2023-01-30T03:53:02.302Z,5.87
2023-01-30T03:55:30.037Z,5.93
2023-01-30T03:57:58.035Z,5.94
2023-01-30T04:00:25.561Z,5.95
2023-01-30T04:02:54.721Z,5.98
2023-01-30T04:05:22.228Z,5.95
2023-01-30T04:07:50.808Z,6.04
2023-01-30T04:10:19.911Z,5.99
2023-01-30T04:12:47.697Z,6.00
2023-01-30T04:15:15.348Z,6.02
2023-01-30T04:17:43.863Z,6.09
2023-01-30T04:20:12.336Z,6.11
2023-01-30T04:22:40.005Z,6.02
2023-01-30T04:25:08.871Z,6.05
2023-01-30T04:27:37.957Z,6.03
2023-01-30T04:30:06.739Z,6.03
2023-01-30T04:32:34.257Z,6.02
2023-01-30T04:35:01.826Z,6.06
2023-01-30T04:37:29.376Z,6.03
2023-01-30T04:39:57.054Z,6.05
2023-01-30T04:42:24.614Z,6.08
2023-01-30T04:44:53.518Z,6.07
2023-01-30T04:47:21.193Z,6.11
2023-01-30T04:49:48.997Z,6.11
2023-01-30T04:52:16.544Z,6.13
2023-01-30T04:54:44.181Z,6.18
2023-01-30T04:57:11.852Z,6.16
2023-01-30T04:59:39.702Z,6.21
2023-01-30T05:02:08.827Z,6.18
2023-01-30T05:04:36.343Z,6.12
2023-01-30T05:07:03.980Z,6.28
2023-01-30T05:09:31.827Z,6.23
2023-01-30T05:11:59.531Z,6.29
2023-01-30T05:14:27.075Z,6.35
2023-01-30T05:16:54.652Z,6.36
2023-01-30T05:19:23.767Z,6.39
2023-01-30T05:21:51.469Z,6.43
2023-01-30T05:24:19.107Z,6.48
2023-01-30T05:26:46.807Z,6.59
2023-01-30T05:29:14.560Z,6.59
2023-01-30T05:31:42.288Z,6.66
2023-01-30T05:34:12.183Z,6.65
2023-01-30T05:36:41.055Z,6.65
2023-01-30T05:39:08.998Z,6.63
2023-01-30T05:41:36.451Z,6.69
2023-01-30T05:44:04.093Z,6.68
2023-01-30T05:46:31.633Z,6.66
2023-01-30T05:48:59.305Z,6.67
2023-01-30T05:51:28.407Z,6.66
2023-01-30T05:53:57.327Z,6.76
2023-01-30T05:56:25.061Z,6.66
2023-01-30T05:58:53.176Z,6.67
2023-01-30T06:01:21.062Z,6.70
2023-01-30T06:03:49.105Z,6.69
2023-01-30T06:06:16.684Z,6.74
2023-01-30T06:08:44.302Z,6.75
2023-01-30T06:11:15.270Z,6.65
2023-01-30T06:13:42.862Z,6.64
2023-01-30T06:16:11.859Z,6.72
2023-01-30T06:18:39.869Z,6.85
2023-01-30T06:21:08.214Z,6.85
2023-01-30T06:23:36.100Z,6.77
2023-01-30T06:26:05.868Z,6.68
2023-01-30T06:28:37.939Z,6.30
2023-01-30T06:31:07.347Z,6.19
2023-01-30T06:33:35.153Z,5.99
2023-01-30T06:36:02.781Z,5.74
2023-01-30T06:38:30.201Z,5.79
2023-01-30T06:40:57.919Z,5.77
2023-01-30T06:43:25.415Z,5.85
2023-01-30T06:45:54.240Z,6.07
2023-01-30T06:48:21.710Z,5.90
2023-01-30T06:50:49.153Z,5.89
2023-01-30T06:53:16.685Z,5.82
2023-01-30T06:55:44.133Z,5.75
2023-01-30T06:58:13.399Z,5.78
2023-01-30T07:00:42.459Z,5.87
2023-01-30T07:03:13.688Z,5.99
2023-01-30T07:05:41.603Z,6.11
2023-01-30T07:08:09.506Z,6.27
2023-01-30T07:10:37.233Z,6.28
2023-01-30T07:13:05.400Z,6.39
2023-01-30T07:15:33.243Z,6.55
2023-01-30T07:18:01.026Z,6.47
2023-01-30T07:20:31.452Z,6.36
2023-01-30T07:22:59.070Z,6.44
2023-01-30T07:25:27.818Z,6.37
2023-01-30T07:27:56.967Z,6.44
2023-01-30T07:30:25.081Z,6.39
2023-01-30T07:32:52.735Z,6.34
2023-01-30T07:35:20.438Z,6.36
2023-01-30T07:37:50.314Z,6.55
2023-01-30T07:40:18.798Z,6.54
2023-01-30T07:42:56.825Z,6.45
2023-01-30T07:45:24.534Z,6.49
2023-01-30T07:47:52.185Z,6.65
2023-01-30T07:50:20.229Z,6.72
2023-01-30T07:52:49.398Z,6.64
2023-01-30T07:55:17.583Z,6.84
2023-01-30T07:57:45.330Z,6.88
2023-01-30T08:00:15.048Z,6.80
2023-01-30T08:02:42.885Z,6.86
2023-01-30T08:05:11.043Z,6.97
2023-01-30T08:07:39.018Z,7.06
2023-01-30T08:10:11.905Z,6.95
2023-01-30T08:12:41.103Z,6.96
2023-01-30T08:15:09.723Z,6.98
2023-01-30T08:17:37.214Z,6.87
2023-01-30T08:20:05.631Z,6.81
2023-01-30T08:22:33.124Z,6.90
2023-01-30T08:25:01.202Z,6.81
2023-01-30T08:27:30.223Z,6.93
2023-01-30T08:29:57.910Z,6.93
2023-01-30T08:32:25.418Z,6.94
2023-01-30T08:34:52.957Z,7.01
2023-01-30T08:37:20.427Z,7.00
2023-01-30T08:39:47.962Z,7.03
2023-01-30T08:42:15.408Z,7.04
2023-01-30T08:44:44.235Z,7.16
2023-01-30T08:47:11.912Z,7.03
2023-01-30T08:49:39.614Z,7.21
2023-01-30T08:52:07.130Z,7.21
2023-01-30T08:54:34.771Z,7.02
2023-01-30T08:57:02.277Z,7.22
2023-01-30T08:59:29.842Z,7.34
2023-01-30T09:01:58.844Z,7.40
2023-01-30T09:04:26.450Z,7.47
2023-01-30T09:06:53.962Z,7.48
2023-01-30T09:09:21.476Z,7.35
2023-01-30T09:11:48.941Z,7.58
2023-01-30T09:14:19.701Z,7.47
2023-01-30T09:16:47.237Z,7.35
2023-01-30T09:19:16.364Z,7.32
2023-01-30T09:21:43.862Z,7.26
2023-01-30T09:24:11.322Z,7.35
2023-01-30T09:26:40.541Z,7.49
2023-01-30T09:29:08.199Z,7.54
2023-01-30T09:31:35.776Z,7.44
2023-01-30T09:34:03.320Z,7.39
2023-01-30T09:39:37.915Z,7.43
2023-01-30T09:42:31.725Z,7.38
2023-01-30T09:47:43.178Z,7.78
2023-01-30T09:50:23.725Z,7.97
2023-01-30T09:52:57.923Z,7.81
2023-01-30T09:56:06.193Z,7.92
2023-01-30T09:58:48.048Z,7.92
2023-01-30T10:01:22.165Z,7.99
2023-01-30T10:06:24.929Z,7.53
2023-01-30T10:08:57.464Z,7.20
2023-01-30T10:11:35.052Z,7.01
2023-01-30T10:14:14.932Z,6.97
2023-01-30T10:17:05.734Z,7.16
2023-01-30T10:23:12.344Z,7.30
2023-01-30T10:25:42.557Z,7.26
2023-01-30T10:28:17.528Z,7.24
2023-01-30T10:31:27.325Z,7.07
2023-01-30T10:37:18.056Z,6.42
2023-01-30T10:39:55.369Z,6.65
2023-01-30T10:42:27.482Z,6.82
2023-01-30T10:44:57.809Z,7.00
2023-01-30T10:47:47.575Z,6.96
2023-01-30T10:50:19.918Z,7.12
2023-01-30T10:52:55.404Z,6.91
2023-01-30T10:55:37.123Z,6.92
2023-01-30T10:58:13.423Z,7.01
2023-01-30T11:00:44.668Z,7.02
2023-01-30T11:03:22.020Z,7.06
2023-01-30T11:11:29.382Z,7.39
2023-01-30T11:14:07.044Z,7.47
2023-01-30T11:16:44.564Z,7.46
2023-01-30T11:19:21.977Z,7.50
2023-01-30T11:21:51.743Z,7.58
2023-01-30T11:24:21.671Z,7.60
2023-01-30T11:26:51.554Z,7.67
2023-01-30T11:29:29.888Z,7.86
2023-01-30T11:32:02.950Z,7.98
2023-01-30T11:34:30.856Z,7.81
2023-01-30T11:37:13.934Z,7.96
2023-01-30T11:39:49.734Z,7.80
2023-01-30T11:42:20.432Z,7.89
2023-01-30T11:44:47.983Z,7.84
2023-01-30T11:47:21.710Z,7.93
2023-01-30T11:49:56.253Z,7.96
2023-01-30T11:52:43.224Z,7.93
2023-01-30T11:55:14.707Z,8.09
2023-01-30T11:57:44.023Z,8.14
2023-01-30T12:00:19.426Z,8.08
2023-01-30T12:02:49.440Z,8.33
2023-01-30T12:05:26.102Z,8.32
2023-01-30T12:07:53.964Z,8.25
2023-01-30T12:10:30.806Z,8.32
2023-01-30T12:13:00.115Z,8.18
2023-01-30T12:15:29.154Z,8.19
2023-01-30T12:18:04.403Z,8.11
2023-01-30T12:20:41.687Z,8.11
2023-01-30T12:23:13.820Z,8.29
2023-01-30T12:25:44.968Z,8.28
2023-01-30T12:28:16.056Z,8.40
2023-01-30T12:30:45.524Z,8.41
2023-01-30T12:35:51.225Z,8.22
2023-01-30T12:38:28.992Z,8.27
2023-01-30T12:41:05.630Z,8.19
2023-01-30T12:43:47.203Z,8.13
2023-01-30T12:46:38.938Z,8.18
2023-01-30T12:49:23.423Z,8.07
2023-01-30T12:51:59.488Z,8.34
2023-01-30T12:54:37.238Z,8.21
2023-01-30T12:57:13.258Z,8.37
2023-01-30T12:59:48.907Z,8.50
2023-01-30T13:02:53.317Z,8.46
2023-01-30T13:05:36.517Z,8.54
2023-01-30T13:08:35.425Z,8.57
2023-01-30T13:11:14.032Z,8.58
2023-01-30T13:13:44.502Z,8.71
2023-01-30T13:16:17.820Z,8.38
2023-01-30T13:18:49.330Z,8.53
2023-01-30T13:21:21.808Z,8.49
2023-01-30T13:23:59.762Z,8.60
2023-01-30T13:26:31.345Z,8.71
2023-01-30T13:29:03.020Z,8.94
2023-01-30T13:31:34.017Z,8.67
2023-01-30T13:34:06.407Z,8.45
2023-01-30T13:36:50.864Z,8.28
2023-01-30T13:39:20.778Z,8.10
2023-01-30T13:41:52.395Z,7.72
2023-01-30T13:44:45.347Z,7.78
2023-01-30T13:47:33.008Z,7.69
2023-01-30T13:53:50.740Z,7.54
2023-01-30T14:00:31.504Z,5.99
2023-01-30T14:03:17.796Z,6.29
2023-01-30T14:06:10.576Z,6.76
2023-01-30T14:09:19.419Z,7.58
2023-01-30T14:12:15.398Z,7.79
2023-01-30T14:14:44.233Z,8.28
2023-01-30T14:17:13.395Z,8.77
2023-01-30T14:19:46.765Z,9.26
2023-01-30T14:22:23.633Z,8.61
2023-01-30T14:25:29.013Z,8.21
2023-01-30T14:30:38.516Z,7.98
2023-01-30T14:33:55.415Z,7.67
2023-01-30T14:36:37.563Z,7.41
2023-01-30T14:39:38.878Z,7.30
2023-01-30T14:42:13.712Z,7.41
2023-01-30T14:44:46.453Z,7.43
2023-01-30T14:47:34.561Z,7.41
2023-01-30T14:50:18.884Z,7.84
2023-01-30T14:52:49.432Z,7.74
2023-01-30T14:55:20.748Z,7.64
2023-01-30T15:02:00.516Z,7.69
2023-01-30T15:04:32.226Z,7.65
2023-01-30T15:07:01.077Z,7.61
2023-01-30T15:09:29.881Z,7.73
2023-01-30T15:12:19.411Z,7.74
2023-01-30T15:14:54.999Z,7.74
2023-01-30T15:17:28.825Z,7.78
2023-01-30T15:20:39.036Z,7.80
2023-01-30T15:23:47.138Z,7.85
2023-01-30T15:26:24.883Z,7.91
2023-01-30T15:29:03.495Z,7.76
2023-01-30T15:31:31.034Z,7.85
2023-01-30T15:33:58.585Z,7.80
2023-01-30T15:36:29.224Z,7.88
2023-01-30T15:39:04.402Z,7.88
2023-01-30T15:41:35.352Z,7.81
2023-01-30T15:44:34.972Z,7.90
2023-01-30T15:47:16.411Z,7.87
2023-01-30T15:50:06.189Z,7.95
2023-01-30T15:52:47.093Z,7.85
2023-01-30T15:55:17.900Z,7.97
2023-01-30T15:57:49.013Z,7.86
2023-01-30T16:03:43.553Z,7.86
2023-01-30T16:06:23.795Z,7.83
2023-01-30T16:09:01.394Z,7.65
2023-01-30T16:11:40.158Z,7.71
2023-01-30T16:14:09.851Z,7.71
2023-01-30T16:16:37.753Z,7.71
2023-01-30T16:19:06.839Z,7.64
2023-01-30T16:21:36.446Z,7.66
2023-01-30T16:24:07.236Z,7.55
2023-01-30T16:26:36.429Z,7.71
2023-01-30T16:29:06.403Z,7.64
2023-01-30T16:31:34.773Z,7.68
2023-01-30T16:34:02.496Z,7.61
2023-01-30T16:36:32.957Z,7.58
2023-01-30T16:39:00.921Z,7.67
2023-01-30T16:41:34.376Z,7.67
2023-01-30T16:44:21.318Z,7.61
2023-01-30T16:46:56.677Z,7.55
2023-01-30T16:49:43.097Z,7.55
2023-01-30T16:52:18.282Z,7.59
2023-01-30T16:54:48.175Z,7.54
2023-01-30T16:57:28.509Z,7.41
2023-01-30T16:59:56.572Z,7.45
2023-01-30T17:02:33.867Z,7.37
2023-01-30T17:05:15.856Z,7.42
2023-01-30T17:07:43.406Z,7.40
2023-01-30T17:10:48.510Z,7.37
2023-01-30T17:13:32.000Z,7.35
2023-01-30T17:16:27.637Z,7.35
2023-01-30T17:18:56.373Z,7.39
2023-01-30T17:21:25.500Z,7.31
2023-01-30T17:23:55.940Z,7.34
2023-01-30T17:26:23.568Z,7.20
2023-01-30T17:28:52.573Z,7.40
2023-01-30T17:34:41.068Z,7.22
2023-01-30T17:37:11.496Z,7.32
2023-01-30T17:39:39.040Z,7.23
2023-01-30T17:42:09.912Z,7.21
2023-01-30T17:44:57.343Z,7.30
2023-01-30T17:47:24.833Z,7.25
2023-01-30T17:49:52.425Z,7.20
2023-01-30T17:52:20.167Z,7.22
2023-01-30T17:54:47.674Z,7.12
2023-01-30T17:57:15.916Z,7.14
2023-01-30T17:59:43.481Z,7.08
2023-01-30T18:02:12.367Z,7.15
2023-01-30T18:04:40.619Z,7.22
2023-01-30T18:07:12.662Z,7.25
2023-01-30T18:09:40.320Z,7.31
2023-01-30T18:12:08.007Z,7.18
2023-01-30T18:14:47.524Z,7.12
2023-01-30T18:17:16.559Z,7.09
2023-01-30T18:22:18.355Z,6.99
2023-01-30T18:24:45.880Z,7.03
2023-01-30T18:27:18.219Z,7.04
2023-01-30T18:29:45.936Z,7.03
2023-01-30T18:32:13.559Z,7.01
2023-01-30T18:34:42.767Z,7.01
2023-01-30T18:37:10.329Z,7.11
2023-01-30T18:39:38.281Z,7.09
2023-01-30T18:42:07.669Z,6.99
2023-01-30T18:44:35.721Z,6.94
2023-01-30T18:47:18.250Z,6.92
2023-01-30T18:49:47.205Z,6.75
2023-01-30T18:52:14.735Z,6.75
2023-01-30T18:54:42.407Z,6.81
2023-01-30T18:57:10.066Z,6.66
2023-01-30T18:59:39.557Z,6.59
2023-01-30T19:02:07.302Z,6.58
2023-01-30T19:04:35.265Z,6.61
2023-01-30T19:07:04.202Z,6.53
2023-01-30T19:09:31.742Z,6.57
2023-01-30T19:12:16.964Z,6.53
2023-01-30T19:14:44.561Z,6.56
2023-01-30T19:17:14.294Z,6.66
2023-01-30T19:19:42.589Z,6.57
2023-01-30T19:22:11.791Z,6.51
2023-01-30T19:24:39.302Z,6.40
2023-01-30T19:27:07.773Z,6.47
2023-01-30T19:29:35.365Z,6.39
2023-01-30T19:32:03.208Z,6.33
2023-01-30T19:34:31.403Z,6.34
2023-01-30T19:37:02.209Z,6.22
2023-01-30T19:39:31.088Z,6.24
2023-01-30T19:41:58.625Z,6.19
2023-01-30T19:44:26.134Z,6.26
2023-01-30T19:46:53.698Z,6.15
2023-01-30T19:49:21.253Z,6.19
2023-01-30T19:51:48.744Z,6.14
2023-01-30T19:54:16.337Z,5.97
2023-01-30T19:56:48.234Z,6.11
2023-01-30T19:59:16.602Z,5.93
2023-01-30T20:01:44.247Z,5.94
2023-01-30T20:04:11.822Z,5.86
2023-01-30T20:06:43.172Z,5.86
2023-01-30T20:09:11.420Z,5.79
2023-01-30T20:11:41.133Z,5.73
2023-01-30T20:14:10.408Z,5.76
2023-01-30T20:16:37.984Z,5.60
2023-01-30T20:19:07.926Z,5.59
2023-01-30T20:21:36.748Z,5.61
2023-01-30T20:26:48.785Z,5.59
2023-01-30T20:29:18.136Z,5.64
2023-01-30T20:31:54.288Z,5.70
2023-01-30T20:34:22.024Z,5.76
2023-01-30T20:36:49.593Z,5.77
2023-01-30T20:39:20.585Z,5.82
2023-01-30T20:41:48.338Z,5.84
2023-01-30T20:44:17.329Z,5.87
2023-01-30T20:46:46.802Z,5.94
2023-01-30T20:49:15.922Z,5.86
2023-01-30T20:51:43.887Z,5.91
2023-01-30T20:54:12.801Z,5.83
2023-01-30T20:56:42.829Z,5.84
2023-01-30T20:59:11.884Z,5.99
2023-01-30T21:01:40.820Z,5.98
2023-01-30T21:04:09.862Z,5.86
2023-01-30T21:06:44.753Z,5.77
2023-01-30T21:09:15.042Z,5.72
2023-01-30T21:11:42.779Z,5.89
2023-01-30T21:14:10.312Z,5.64
2023-01-30T21:16:38.471Z,5.75
2023-01-30T21:19:09.097Z,5.75
2023-01-30T21:21:38.242Z,5.81
2023-01-30T21:24:08.716Z,5.76
2023-01-30T21:26:38.580Z,5.86
2023-01-30T21:29:08.424Z,5.87
2023-01-30T21:31:37.613Z,5.91
2023-01-30T21:34:07.964Z,5.87
2023-01-30T21:36:35.446Z,5.91
2023-01-30T21:42:38.257Z,5.95
2023-01-30T21:45:07.394Z,5.90
2023-01-30T21:47:34.879Z,5.93
2023-01-30T21:50:03.732Z,5.92
2023-01-30T21:52:32.355Z,5.83
2023-01-30T21:54:59.896Z,5.76
2023-01-30T21:57:27.398Z,5.81
2023-01-30T21:59:55.356Z,5.83
2023-01-30T22:02:23.112Z,5.78
2023-01-30T22:04:50.789Z,5.80
2023-01-30T22:07:19.659Z,5.79
2023-01-30T22:09:48.765Z,5.80
2023-01-30T22:12:16.294Z,5.62
2023-01-30T22:14:43.793Z,5.61
2023-01-30T22:17:11.321Z,5.56
2023-01-30T22:19:38.820Z,5.62
2023-01-30T22:22:06.323Z,5.54
2023-01-30T22:24:35.166Z,5.46
2023-01-30T22:27:03.369Z,5.52
2023-01-30T22:29:30.854Z,5.46
2023-01-30T22:31:58.624Z,5.48
2023-01-30T22:34:26.267Z,5.32
2023-01-30T22:36:54.346Z,5.35
2023-01-30T22:39:21.889Z,5.14
2023-01-30T22:41:50.925Z,5.14
2023-01-30T22:44:18.427Z,5.05
2023-01-30T22:46:46.065Z,5.09
2023-01-30T22:49:13.601Z,5.13
2023-01-30T22:51:43.172Z,4.95
2023-01-30T22:54:15.447Z,4.91
2023-01-30T22:56:44.305Z,4.72
2023-01-30T22:59:13.589Z,4.67
2023-01-30T23:01:43.000Z,4.65
2023-01-30T23:04:13.569Z,4.68
2023-01-30T23:06:41.492Z,4.60
2023-01-30T23:09:10.443Z,4.48
2023-01-30T23:11:40.599Z,4.53
2023-01-30T23:14:09.514Z,4.57
2023-01-30T23:16:40.360Z,4.55
2023-01-30T23:19:07.862Z,4.66
2023-01-30T23:21:57.932Z,4.64
2023-01-30T23:24:25.418Z,4.62
2023-01-30T23:26:53.161Z,4.62
2023-01-30T23:29:21.543Z,4.61
2023-01-30T23:31:50.440Z,4.53
2023-01-30T23:34:19.570Z,4.32
2023-01-30T23:36:47.476Z,4.35
2023-01-30T23:39:15.413Z,4.24
2023-01-30T23:41:44.228Z,4.11
2023-01-30T23:44:11.971Z,4.08
2023-01-30T23:46:41.520Z,4.10
2023-01-30T23:49:11.591Z,4.13
2023-01-30T23:51:40.790Z,4.19
2023-01-30T23:54:08.902Z,4.20
2023-01-30T23:56:38.842Z,4.19
2023-01-30T23:59:07.019Z,4.11
